Wye River — WDE3583 — position and weather

sailwx.info

Track history (hours):
 
Tides and Currents Weather Stations Pressure Air Temp Water Temp Dewpoint Dewpoint Depression Visibility Wind Speed Wind Dir Waves Ship Positions

Wye River

Owner: Vane Line Bunkering, Inc., Baltimore, MD. More information available from US FCC via Universal Licensing System and Coast Guard Vessel Documentation Center.

Last reported at 2017-Jan-21 13:30 UTC. Time now 2017-Jan-23 12:50 UTC.
Position N 32°02' W 080°38'.

Length 30 m; draft 4.3 m.

Type: Tow > 200 m length. MMSI: 367341190.

Date/timePositionNaut miles runAvg speedWind from/ knotsBaromVisibWave heightAir tempDewpointWater temp
2017-Jan-21 13:30N 32°02' W 080°38'8 8.5
2017-Jan-21 12:33N 32°00' W 080°48'6 6.0
2017-Jan-21 11:33N 32°02' W 080°54'7 7.4
2017-Jan-21 10:33N 32°05' W 081°02'4 3.6
2017-Jan-21 09:33N 32°06' W 081°07'0 0.0
2017-Jan-21 08:33N 32°06' W 081°06'0 0.0
2017-Jan-21 07:33N 32°06' W 081°06'0 0.0
2017-Jan-21 06:33N 32°06' W 081°06'0 0.0
2017-Jan-21 05:33N 32°06' W 081°06'0 0.0
2017-Jan-21 04:33N 32°06' W 081°06'0 0.0
2017-Jan-21 03:33N 32°06' W 081°06'0 0.0
2017-Jan-21 02:33N 32°06' W 081°06'0 0.0
2017-Jan-21 01:33N 32°06' W 081°06'0 0.0
2017-Jan-21 00:33N 32°06' W 081°06'0 0.0
2017-Jan-20 23:33N 32°06' W 081°06'0 0.0
2017-Jan-20 22:33N 32°06' W 081°06'0 0.0
2017-Jan-20 21:33N 32°06' W 081°06'0 0.0
2017-Jan-20 20:33N 32°06' W 081°06'0 0.0
2017-Jan-20 19:33N 32°06' W 081°06'0 0.0
2017-Jan-20 18:33N 32°06' W 081°06'2 1.5
2017-Jan-20 17:33N 32°05' W 081°05'6 6.2
2017-Jan-20 16:33N 32°04' W 080°58'10 8.9
2017-Jan-20 15:24N 31°59' W 080°47'2 1.8
2017-Jan-20 14:21N 31°58' W 080°45'1 1.0
2017-Jan-20 13:33N 31°59' W 080°46'3 3.4
2017-Jan-20 12:32N 31°58' W 080°42'243 8.1
2017-Jan-19 06:28N 34°22' W 076°48'8 8.9
2017-Jan-19 05:33N 34°22' W 076°38'15 7.6
2017-Jan-19 03:33N 34°30' W 076°23'8 8.0
2017-Jan-19 02:33N 34°37' W 076°17'133 6.2
2017-Jan-18 05:12N 36°48' W 075°52'5 8.4
2017-Jan-18 04:33N 36°53' W 075°55'8 8.5
2017-Jan-18 03:33N 36°58' W 076°04'13 4.4
2017-Jan-18 00:29N 36°54' W 076°20'5 5.1
2017-Jan-17 23:33N 36°50' W 076°17'2 1.6
2017-Jan-17 22:33N 36°48' W 076°18'0 0.0
2017-Jan-17 21:33N 36°48' W 076°18'1 1.2
2017-Jan-17 20:33N 36°49' W 076°17'0 0.0
2017-Jan-17 19:33N 36°49' W 076°17'1 0.7
2017-Jan-17 18:33N 36°48' W 076°17'1 0.6
2017-Jan-17 17:33N 36°48' W 076°18'0 0.0
2017-Jan-17 16:33N 36°48' W 076°18'0 0.0
2017-Jan-17 15:33N 36°48' W 076°18'0 0.0
2017-Jan-17 14:33N 36°48' W 076°18'0 0.0
2017-Jan-17 13:33N 36°48' W 076°18'0 0.0
2017-Jan-17 12:33N 36°48' W 076°18'0 0.0
2017-Jan-17 11:33N 36°48' W 076°18'0 0.0
2017-Jan-17 10:33N 36°48' W 076°18'0 0.0
2017-Jan-17 09:33N 36°48' W 076°18'0 0.0
2017-Jan-17 08:33N 36°48' W 076°18'0 0.0
2017-Jan-17 07:33N 36°48' W 076°18'0 0.1
2017-Jan-17 06:33N 36°48' W 076°18'0 0.0
2017-Jan-17 05:33N 36°48' W 076°18'0 0.4
2017-Jan-17 04:33N 36°48' W 076°17'0 0.0
2017-Jan-17 03:33N 36°48' W 076°17'0 0.0
2017-Jan-17 02:33N 36°48' W 076°17'0 0.0
2017-Jan-17 01:33N 36°48' W 076°17'0 0.0
2017-Jan-17 00:33N 36°48' W 076°17'0 0.0
2017-Jan-16 23:33N 36°48' W 076°17'0 0.0
2017-Jan-16 22:33N 36°48' W 076°17'0 0.0
2017-Jan-16 21:33N 36°48' W 076°17'2 1.8
2017-Jan-16 20:33N 36°50' W 076°18'6 5.7
2017-Jan-16 19:31N 36°56' W 076°20'11 5.6
2017-Jan-16 17:28N 36°58' W 076°06'4 4.7
2017-Jan-16 16:33N 36°57' W 076°01'167 6.6
2017-Jan-15 15:14N 39°22' W 074°16'5 7.0
2017-Jan-15 14:34N 39°25' W 074°12'7 6.8
2017-Jan-15 13:31N 39°31' W 074°08'9 9.2
2017-Jan-15 12:32N 39°40' W 074°04'5 5.0
2017-Jan-15 11:33N 39°45' W 074°03'7 6.6
2017-Jan-15 10:33N 39°51' W 074°02'7 7.0
2017-Jan-15 09:30N 39°59' W 074°01'8 6.8
2017-Jan-15 08:23N 40°06' W 073°59'9 6.9
2017-Jan-15 07:06N 40°15' W 073°56'11 7.0
2017-Jan-15 05:30N 40°26' W 073°55'7 7.0
2017-Jan-15 04:33N 40°31' W 073°60'6 6.5
2017-Jan-15 03:33N 40°37' W 074°03'4 4.4
2017-Jan-15 02:34N 40°41' W 074°02'8 8.0
2017-Jan-15 01:33N 40°49' W 073°58'9 8.5
2017-Jan-15 00:33N 40°57' W 073°54'0 0.0
2017-Jan-13 00:21N 40°57' W 073°54'7 9.1
2017-Jan-12 23:33N 40°50' W 073°57'9 8.7
2017-Jan-12 22:33N 40°42' W 074°01'7 7.1
2017-Jan-12 21:34N 40°35' W 074°02'4 4.0
2017-Jan-12 20:33N 40°31' W 073°60'5 4.5
2017-Jan-12 19:29N 40°29' W 073°55'38 6.1
2017-Jan-12 13:14N 39°51' W 074°02'5 6.5
2017-Jan-12 12:27N 39°46' W 074°03'6 6.4
2017-Jan-12 11:33N 39°40' W 074°05'45 6.3
2017-Jan-12 04:25N 39°03' W 074°38'  
Track history (hours):
 
Tides and Currents Weather Stations Pressure Air Temp Water Temp Dewpoint Dewpoint Depression Visibility Wind Speed Wind Dir Waves Ship Positions

Wye River

Owner: Vane Line Bunkering, Inc., Baltimore, MD. More information available from US FCC via Universal Licensing System and Coast Guard Vessel Documentation Center.

Last reported at 2017-Jan-21 13:30 UTC. Time now 2017-Jan-23 12:50 UTC.
Position N 32°02' W 080°38'.

Length 30 m; draft 4.3 m.

Type: Tow > 200 m length. MMSI: 367341190.

Date/timePositionNaut miles runAvg speedWind from/ knotsBaromVisibWave heightAir tempDewpointWater temp
2017-Jan-21 13:30N 32°02' W 080°38'8 8.5
2017-Jan-21 12:33N 32°00' W 080°48'6 6.0
2017-Jan-21 11:33N 32°02' W 080°54'7 7.4
2017-Jan-21 10:33N 32°05' W 081°02'4 3.6
2017-Jan-21 09:33N 32°06' W 081°07'0 0.0
2017-Jan-21 08:33N 32°06' W 081°06'0 0.0
2017-Jan-21 07:33N 32°06' W 081°06'0 0.0
2017-Jan-21 06:33N 32°06' W 081°06'0 0.0
2017-Jan-21 05:33N 32°06' W 081°06'0 0.0
2017-Jan-21 04:33N 32°06' W 081°06'0 0.0
2017-Jan-21 03:33N 32°06' W 081°06'0 0.0
2017-Jan-21 02:33N 32°06' W 081°06'0 0.0
2017-Jan-21 01:33N 32°06' W 081°06'0 0.0
2017-Jan-21 00:33N 32°06' W 081°06'0 0.0
2017-Jan-20 23:33N 32°06' W 081°06'0 0.0
2017-Jan-20 22:33N 32°06' W 081°06'0 0.0
2017-Jan-20 21:33N 32°06' W 081°06'0 0.0
2017-Jan-20 20:33N 32°06' W 081°06'0 0.0
2017-Jan-20 19:33N 32°06' W 081°06'0 0.0
2017-Jan-20 18:33N 32°06' W 081°06'2 1.5
2017-Jan-20 17:33N 32°05' W 081°05'6 6.2
2017-Jan-20 16:33N 32°04' W 080°58'10 8.9
2017-Jan-20 15:24N 31°59' W 080°47'2 1.8
2017-Jan-20 14:21N 31°58' W 080°45'1 1.0
2017-Jan-20 13:33N 31°59' W 080°46'3 3.4
2017-Jan-20 12:32N 31°58' W 080°42'243 8.1
2017-Jan-19 06:28N 34°22' W 076°48'8 8.9
2017-Jan-19 05:33N 34°22' W 076°38'15 7.6
2017-Jan-19 03:33N 34°30' W 076°23'8 8.0
2017-Jan-19 02:33N 34°37' W 076°17'133 6.2
2017-Jan-18 05:12N 36°48' W 075°52'5 8.4
2017-Jan-18 04:33N 36°53' W 075°55'8 8.5
2017-Jan-18 03:33N 36°58' W 076°04'13 4.4
2017-Jan-18 00:29N 36°54' W 076°20'5 5.1
2017-Jan-17 23:33N 36°50' W 076°17'2 1.6
2017-Jan-17 22:33N 36°48' W 076°18'0 0.0
2017-Jan-17 21:33N 36°48' W 076°18'1 1.2
2017-Jan-17 20:33N 36°49' W 076°17'0 0.0
2017-Jan-17 19:33N 36°49' W 076°17'1 0.7
2017-Jan-17 18:33N 36°48' W 076°17'1 0.6
2017-Jan-17 17:33N 36°48' W 076°18'0 0.0
2017-Jan-17 16:33N 36°48' W 076°18'0 0.0
2017-Jan-17 15:33N 36°48' W 076°18'0 0.0
2017-Jan-17 14:33N 36°48' W 076°18'0 0.0
2017-Jan-17 13:33N 36°48' W 076°18'0 0.0
2017-Jan-17 12:33N 36°48' W 076°18'0 0.0
2017-Jan-17 11:33N 36°48' W 076°18'0 0.0
2017-Jan-17 10:33N 36°48' W 076°18'0 0.0
2017-Jan-17 09:33N 36°48' W 076°18'0 0.0
2017-Jan-17 08:33N 36°48' W 076°18'0 0.0
2017-Jan-17 07:33N 36°48' W 076°18'0 0.1
2017-Jan-17 06:33N 36°48' W 076°18'0 0.0
2017-Jan-17 05:33N 36°48' W 076°18'0 0.4
2017-Jan-17 04:33N 36°48' W 076°17'0 0.0
2017-Jan-17 03:33N 36°48' W 076°17'0 0.0
2017-Jan-17 02:33N 36°48' W 076°17'0 0.0
2017-Jan-17 01:33N 36°48' W 076°17'0 0.0
2017-Jan-17 00:33N 36°48' W 076°17'0 0.0
2017-Jan-16 23:33N 36°48' W 076°17'0 0.0
2017-Jan-16 22:33N 36°48' W 076°17'0 0.0
2017-Jan-16 21:33N 36°48' W 076°17'2 1.8
2017-Jan-16 20:33N 36°50' W 076°18'6 5.7
2017-Jan-16 19:31N 36°56' W 076°20'11 5.6
2017-Jan-16 17:28N 36°58' W 076°06'4 4.7
2017-Jan-16 16:33N 36°57' W 076°01'167 6.6
2017-Jan-15 15:14N 39°22' W 074°16'5 7.0
2017-Jan-15 14:34N 39°25' W 074°12'7 6.8
2017-Jan-15 13:31N 39°31' W 074°08'9 9.2
2017-Jan-15 12:32N 39°40' W 074°04'5 5.0
2017-Jan-15 11:33N 39°45' W 074°03'7 6.6
2017-Jan-15 10:33N 39°51' W 074°02'7 7.0
2017-Jan-15 09:30N 39°59' W 074°01'8 6.8
2017-Jan-15 08:23N 40°06' W 073°59'9 6.9
2017-Jan-15 07:06N 40°15' W 073°56'11 7.0
2017-Jan-15 05:30N 40°26' W 073°55'7 7.0
2017-Jan-15 04:33N 40°31' W 073°60'6 6.5
2017-Jan-15 03:33N 40°37' W 074°03'4 4.4
2017-Jan-15 02:34N 40°41' W 074°02'8 8.0
2017-Jan-15 01:33N 40°49' W 073°58'9 8.5
2017-Jan-15 00:33N 40°57' W 073°54'0 0.0
2017-Jan-13 00:21N 40°57' W 073°54'7 9.1
2017-Jan-12 23:33N 40°50' W 073°57'9 8.7
2017-Jan-12 22:33N 40°42' W 074°01'7 7.1
2017-Jan-12 21:34N 40°35' W 074°02'4 4.0
2017-Jan-12 20:33N 40°31' W 073°60'5 4.5
2017-Jan-12 19:29N 40°29' W 073°55'38 6.1
2017-Jan-12 13:14N 39°51' W 074°02'5 6.5
2017-Jan-12 12:27N 39°46' W 074°03'6 6.4
2017-Jan-12 11:33N 39°40' W 074°05'45 6.3
2017-Jan-12 04:25N 39°03' W 074°38'  

Dump ship's entire track history